sensor_id;sensor_type;location;lat;lon;timestamp;temperature;humidity
9808;DHT22;4943;52.550;13.462;2023-04-03T00:01:14;3.70;99.90
9808;DHT22;4943;52.550;13.462;2023-04-03T00:03:42;3.70;99.90
9808;DHT22;4943;52.550;13.462;2023-04-03T00:06:11;3.60;99.90
9808;DHT22;4943;52.550;13.462;2023-04-03T00:08:40;3.60;99.90
9808;DHT22;4943;52.550;13.462;2023-04-03T00:11:09;3.60;99.90
9808;DHT22;4943;52.550;13.462;2023-04-03T00:13:38;3.60;99.90
9808;DHT22;4943;52.550;13.462;2023-04-03T00:16:09;3.60;99.90
9808;DHT22;4943;52.550;13.462;2023-04-03T00:18:39;3.60;99.90
9808;DHT22;4943;52.550;13.462;2023-04-03T00:21:09;3.60;99.90
9808;DHT22;4943;52.550;13.462;2023-04-03T00:23:38;3.50;99.90
9808;DHT22;4943;52.550;13.462;2023-04-03T00:26:06;3.60;99.90
9808;DHT22;4943;52.550;13.462;2023-04-03T00:28:34;3.60;99.90
9808;DHT22;4943;52.550;13.462;2023-04-03T00:31:02;3.50;99.90
9808;DHT22;4943;52.550;13.462;2023-04-03T00:33:31;3.50;99.90
9808;DHT22;4943;52.550;13.462;2023-04-03T00:36:04;3.50;99.90
9808;DHT22;4943;52.550;13.462;2023-04-03T00:38:33;3.50;99.90
9808;DHT22;4943;52.550;13.462;2023-04-03T00:41:01;3.50;99.90
9808;DHT22;4943;52.550;13.462;2023-04-03T00:43:29;3.60;99.90
9808;DHT22;4943;52.550;13.462;2023-04-03T00:45:59;3.60;99.90
9808;DHT22;4943;52.550;13.462;2023-04-03T00:48:30;3.60;99.90
9808;DHT22;4943;52.550;13.462;2023-04-03T00:51:01;3.60;99.90
9808;DHT22;4943;52.550;13.462;2023-04-03T00:53:32;3.60;99.90
9808;DHT22;4943;52.550;13.462;2023-04-03T00:56:01;3.60;99.90
9808;DHT22;4943;52.550;13.462;2023-04-03T00:58:34;3.60;99.90
9808;DHT22;4943;52.550;13.462;2023-04-03T01:01:07;3.60;99.90
9808;DHT22;4943;52.550;13.462;2023-04-03T01:03:35;3.60;99.90
9808;DHT22;4943;52.550;13.462;2023-04-03T01:06:05;3.50;99.90
9808;DHT22;4943;52.550;13.462;2023-04-03T01:08:34;3.50;99.90
9808;DHT22;4943;52.550;13.462;2023-04-03T01:11:03;3.50;99.90
9808;DHT22;4943;52.550;13.462;2023-04-03T01:13:32;3.50;99.90
9808;DHT22;4943;52.550;13.462;2023-04-03T01:16:01;3.50;99.90
9808;DHT22;4943;52.550;13.462;2023-04-03T01:18:31;3.50;99.90
9808;DHT22;4943;52.550;13.462;2023-04-03T01:21:28;3.50;99.90
9808;DHT22;4943;52.550;13.462;2023-04-03T01:24:18;3.50;99.90
9808;DHT22;4943;52.550;13.462;2023-04-03T01:26:49;3.50;99.90
9808;DHT22;4943;52.550;13.462;2023-04-03T01:29:17;3.40;99.90
9808;DHT22;4943;52.550;13.462;2023-04-03T01:31:51;3.40;99.90
9808;DHT22;4943;52.550;13.462;2023-04-03T01:34:20;3.40;99.90
9808;DHT22;4943;52.550;13.462;2023-04-03T01:36:48;3.40;99.90
9808;DHT22;4943;52.550;13.462;2023-04-03T01:39:17;3.40;99.90
9808;DHT22;4943;52.550;13.462;2023-04-03T01:41:45;3.40;99.90
9808;DHT22;4943;52.550;13.462;2023-04-03T01:44:14;3.40;99.90
9808;DHT22;4943;52.550;13.462;2023-04-03T01:46:42;3.30;99.90
9808;DHT22;4943;52.550;13.462;2023-04-03T01:49:11;3.40;99.90
9808;DHT22;4943;52.550;13.462;2023-04-03T01:51:39;3.30;99.90
9808;DHT22;4943;52.550;13.462;2023-04-03T01:54:07;3.30;99.90
9808;DHT22;4943;52.550;13.462;2023-04-03T01:56:35;3.30;99.90
9808;DHT22;4943;52.550;13.462;2023-04-03T01:59:04;3.30;99.90
9808;DHT22;4943;52.550;13.462;2023-04-03T02:01:32;3.20;99.90
9808;DHT22;4943;52.550;13.462;2023-04-03T02:04:01;3.20;99.90
9808;DHT22;4943;52.550;13.462;2023-04-03T02:06:30;3.20;99.90
9808;DHT22;4943;52.550;13.462;2023-04-03T02:08:58;3.20;99.90
9808;DHT22;4943;52.550;13.462;2023-04-03T02:11:26;3.20;99.90
9808;DHT22;4943;52.550;13.462;2023-04-03T02:13:54;3.20;99.90
9808;DHT22;4943;52.550;13.462;2023-04-03T02:16:22;3.20;99.90
9808;DHT22;4943;52.550;13.462;2023-04-03T02:18:50;3.20;99.90
9808;DHT22;4943;52.550;13.462;2023-04-03T02:21:18;3.20;99.90
9808;DHT22;4943;52.550;13.462;2023-04-03T02:23:48;3.20;99.90
9808;DHT22;4943;52.550;13.462;2023-04-03T02:26:17;3.20;99.90
9808;DHT22;4943;52.550;13.462;2023-04-03T02:28:45;3.20;99.90
9808;DHT22;4943;52.550;13.462;2023-04-03T02:31:13;3.20;99.90
9808;DHT22;4943;52.550;13.462;2023-04-03T02:33:41;3.20;99.90
9808;DHT22;4943;52.550;13.462;2023-04-03T02:36:10;3.10;99.90
9808;DHT22;4943;52.550;13.462;2023-04-03T02:38:38;3.10;99.90
9808;DHT22;4943;52.550;13.462;2023-04-03T02:41:09;3.10;99.90
9808;DHT22;4943;52.550;13.462;2023-04-03T02:43:38;3.10;99.90
9808;DHT22;4943;52.550;13.462;2023-04-03T02:46:06;3.00;99.90
9808;DHT22;4943;52.550;13.462;2023-04-03T02:48:34;3.00;99.90
9808;DHT22;4943;52.550;13.462;2023-04-03T02:51:03;3.00;99.90
9808;DHT22;4943;52.550;13.462;2023-04-03T02:53:31;2.90;99.90
9808;DHT22;4943;52.550;13.462;2023-04-03T02:55:59;2.90;99.90
9808;DHT22;4943;52.550;13.462;2023-04-03T02:58:28;2.90;99.90
9808;DHT22;4943;52.550;13.462;2023-04-03T03:00:56;2.90;99.90
9808;DHT22;4943;52.550;13.462;2023-04-03T03:03:24;2.90;99.90
9808;DHT22;4943;52.550;13.462;2023-04-03T03:06:01;2.90;99.90
9808;DHT22;4943;52.550;13.462;2023-04-03T03:08:29;2.90;99.90
9808;DHT22;4943;52.550;13.462;2023-04-03T03:10:58;2.90;99.90
9808;DHT22;4943;52.550;13.462;2023-04-03T03:13:26;2.90;99.90
9808;DHT22;4943;52.550;13.462;2023-04-03T03:15:55;2.90;99.90
9808;DHT22;4943;52.550;13.462;2023-04-03T03:18:23;2.90;99.90
9808;DHT22;4943;52.550;13.462;2023-04-03T03:20:52;2.90;99.90
9808;DHT22;4943;52.550;13.462;2023-04-03T03:23:22;2.80;99.90
9808;DHT22;4943;52.550;13.462;2023-04-03T03:25:54;2.80;99.90
9808;DHT22;4943;52.550;13.462;2023-04-03T03:28:22;2.80;99.90
9808;DHT22;4943;52.550;13.462;2023-04-03T03:30:51;2.80;99.90
9808;DHT22;4943;52.550;13.462;2023-04-03T03:33:20;2.80;99.90
9808;DHT22;4943;52.550;13.462;2023-04-03T03:35:48;2.80;99.90
9808;DHT22;4943;52.550;13.462;2023-04-03T03:38:16;2.80;99.90
9808;DHT22;4943;52.550;13.462;2023-04-03T03:40:44;2.80;99.90
9808;DHT22;4943;52.550;13.462;2023-04-03T03:43:12;2.80;99.90
9808;DHT22;4943;52.550;13.462;2023-04-03T03:45:40;2.70;99.90
9808;DHT22;4943;52.550;13.462;2023-04-03T03:48:08;2.70;99.90
9808;DHT22;4943;52.550;13.462;2023-04-03T03:50:38;2.70;99.90
9808;DHT22;4943;52.550;13.462;2023-04-03T03:53:06;2.70;99.90
9808;DHT22;4943;52.550;13.462;2023-04-03T03:55:34;2.70;99.90
9808;DHT22;4943;52.550;13.462;2023-04-03T03:58:03;2.70;99.90
9808;DHT22;4943;52.550;13.462;2023-04-03T04:00:31;2.70;99.90
9808;DHT22;4943;52.550;13.462;2023-04-03T04:02:59;2.70;99.90
9808;DHT22;4943;52.550;13.462;2023-04-03T04:05:27;2.70;99.90
9808;DHT22;4943;52.550;13.462;2023-04-03T04:07:56;2.60;99.90
9808;DHT22;4943;52.550;13.462;2023-04-03T04:10:24;2.60;99.90
9808;DHT22;4943;52.550;13.462;2023-04-03T04:12:53;2.60;99.90
9808;DHT22;4943;52.550;13.462;2023-04-03T04:15:24;2.60;99.90
9808;DHT22;4943;52.550;13.462;2023-04-03T04:17:52;2.50;99.90
9808;DHT22;4943;52.550;13.462;2023-04-03T04:20:21;2.50;99.90
9808;DHT22;4943;52.550;13.462;2023-04-03T04:22:49;2.50;99.90
9808;DHT22;4943;52.550;13.462;2023-04-03T04:25:18;2.50;99.90
9808;DHT22;4943;52.550;13.462;2023-04-03T04:27:46;2.50;99.90
9808;DHT22;4943;52.550;13.462;2023-04-03T04:30:14;2.50;99.90
9808;DHT22;4943;52.550;13.462;2023-04-03T04:32:42;2.50;99.90
9808;DHT22;4943;52.550;13.462;2023-04-03T04:35:10;2.50;99.90
9808;DHT22;4943;52.550;13.462;2023-04-03T04:37:42;2.50;99.90
9808;DHT22;4943;52.550;13.462;2023-04-03T04:40:11;2.50;99.90
9808;DHT22;4943;52.550;13.462;2023-04-03T04:42:40;2.50;99.90
9808;DHT22;4943;52.550;13.462;2023-04-03T04:45:09;2.50;99.90
9808;DHT22;4943;52.550;13.462;2023-04-03T04:47:37;2.50;99.90
9808;DHT22;4943;52.550;13.462;2023-04-03T04:50:06;2.50;99.90
9808;DHT22;4943;52.550;13.462;2023-04-03T04:52:34;2.50;99.90
9808;DHT22;4943;52.550;13.462;2023-04-03T04:55:02;2.60;99.90
9808;DHT22;4943;52.550;13.462;2023-04-03T04:57:30;2.60;99.90
9808;DHT22;4943;52.550;13.462;2023-04-03T05:00:00;2.60;99.90
9808;DHT22;4943;52.550;13.462;2023-04-03T05:02:28;2.60;99.90
9808;DHT22;4943;52.550;13.462;2023-04-03T05:04:56;2.70;99.90
9808;DHT22;4943;52.550;13.462;2023-04-03T05:07:24;2.70;99.90
9808;DHT22;4943;52.550;13.462;2023-04-03T05:09:52;2.70;99.90
9808;DHT22;4943;52.550;13.462;2023-04-03T05:12:20;2.70;99.90
9808;DHT22;4943;52.550;13.462;2023-04-03T05:14:48;2.70;99.90
9808;DHT22;4943;52.550;13.462;2023-04-03T05:17:18;2.70;99.90
9808;DHT22;4943;52.550;13.462;2023-04-03T05:19:46;2.80;99.90
9808;DHT22;4943;52.550;13.462;2023-04-03T05:22:14;2.80;99.90
9808;DHT22;4943;52.550;13.462;2023-04-03T05:24:42;2.80;99.90
9808;DHT22;4943;52.550;13.462;2023-04-03T05:27:10;2.70;99.90
9808;DHT22;4943;52.550;13.462;2023-04-03T05:29:38;2.70;99.90
9808;DHT22;4943;52.550;13.462;2023-04-03T05:32:06;2.70;99.90
9808;DHT22;4943;52.550;13.462;2023-04-03T05:34:35;2.70;99.90
9808;DHT22;4943;52.550;13.462;2023-04-03T05:37:04;2.80;99.90
9808;DHT22;4943;52.550;13.462;2023-04-03T05:39:32;2.80;99.90
9808;DHT22;4943;52.550;13.462;2023-04-03T05:42:00;2.80;99.90
9808;DHT22;4943;52.550;13.462;2023-04-03T05:44:28;2.80;99.90
9808;DHT22;4943;52.550;13.462;2023-04-03T05:46:56;2.70;99.90
9808;DHT22;4943;52.550;13.462;2023-04-03T05:49:24;2.70;99.90
9808;DHT22;4943;52.550;13.462;2023-04-03T05:51:54;2.70;99.90
9808;DHT22;4943;52.550;13.462;2023-04-03T05:54:24;2.80;99.90
9808;DHT22;4943;52.550;13.462;2023-04-03T05:56:53;2.70;99.90
9808;DHT22;4943;52.550;13.462;2023-04-03T05:59:21;2.80;99.90
9808;DHT22;4943;52.550;13.462;2023-04-03T06:01:49;2.80;99.90
9808;DHT22;4943;52.550;13.462;2023-04-03T06:04:17;2.90;99.90
9808;DHT22;4943;52.550;13.462;2023-04-03T06:06:48;2.90;99.90
9808;DHT22;4943;52.550;13.462;2023-04-03T06:09:21;2.90;99.90
9808;DHT22;4943;52.550;13.462;2023-04-03T06:11:49;3.00;99.90
9808;DHT22;4943;52.550;13.462;2023-04-03T06:14:18;3.00;99.90
9808;DHT22;4943;52.550;13.462;2023-04-03T06:16:46;3.00;99.90
9808;DHT22;4943;52.550;13.462;2023-04-03T06:19:15;3.10;99.90
9808;DHT22;4943;52.550;13.462;2023-04-03T06:21:43;3.10;99.90
9808;DHT22;4943;52.550;13.462;2023-04-03T06:24:13;3.20;99.90
9808;DHT22;4943;52.550;13.462;2023-04-03T06:26:43;3.20;99.90
9808;DHT22;4943;52.550;13.462;2023-04-03T06:29:12;3.20;99.90
9808;DHT22;4943;52.550;13.462;2023-04-03T06:31:40;3.30;99.90
9808;DHT22;4943;52.550;13.462;2023-04-03T06:34:08;3.30;99.90
9808;DHT22;4943;52.550;13.462;2023-04-03T06:36:37;3.40;99.90
9808;DHT22;4943;52.550;13.462;2023-04-03T06:39:06;3.40;99.90
9808;DHT22;4943;52.550;13.462;2023-04-03T06:41:35;3.40;99.90
9808;DHT22;4943;52.550;13.462;2023-04-03T06:44:04;3.50;99.90
9808;DHT22;4943;52.550;13.462;2023-04-03T06:46:32;3.50;99.90
9808;DHT22;4943;52.550;13.462;2023-04-03T06:49:00;3.60;99.90
9808;DHT22;4943;52.550;13.462;2023-04-03T06:51:29;3.60;99.90
9808;DHT22;4943;52.550;13.462;2023-04-03T06:53:59;3.70;99.90
9808;DHT22;4943;52.550;13.462;2023-04-03T06:56:27;3.70;99.90
9808;DHT22;4943;52.550;13.462;2023-04-03T06:58:56;3.80;99.90
9808;DHT22;4943;52.550;13.462;2023-04-03T07:01:27;3.70;99.90
9808;DHT22;4943;52.550;13.462;2023-04-03T07:03:56;3.70;99.90
9808;DHT22;4943;52.550;13.462;2023-04-03T07:06:24;3.70;99.90
9808;DHT22;4943;52.550;13.462;2023-04-03T07:08:54;3.80;99.90
9808;DHT22;4943;52.550;13.462;2023-04-03T07:11:22;3.80;99.90
9808;DHT22;4943;52.550;13.462;2023-04-03T07:13:51;3.90;99.90
9808;DHT22;4943;52.550;13.462;2023-04-03T07:16:19;4.00;99.90
9808;DHT22;4943;52.550;13.462;2023-04-03T07:18:48;4.10;99.90
9808;DHT22;4943;52.550;13.462;2023-04-03T07:21:16;4.30;99.90
9808;DHT22;4943;52.550;13.462;2023-04-03T07:23:44;4.40;99.90
9808;DHT22;4943;52.550;13.462;2023-04-03T07:26:12;4.50;99.90
9808;DHT22;4943;52.550;13.462;2023-04-03T07:28:40;4.60;99.90
9808;DHT22;4943;52.550;13.462;2023-04-03T07:31:11;4.60;99.90
9808;DHT22;4943;52.550;13.462;2023-04-03T07:33:40;4.70;99.90
9808;DHT22;4943;52.550;13.462;2023-04-03T07:36:15;4.80;99.90
9808;DHT22;4943;52.550;13.462;2023-04-03T07:38:44;4.80;99.90
9808;DHT22;4943;52.550;13.462;2023-04-03T07:41:14;4.70;99.90
9808;DHT22;4943;52.550;13.462;2023-04-03T07:43:44;4.70;99.90
9808;DHT22;4943;52.550;13.462;2023-04-03T07:46:13;4.80;99.90
9808;DHT22;4943;52.550;13.462;2023-04-03T07:48:41;4.90;99.90
9808;DHT22;4943;52.550;13.462;2023-04-03T07:51:10;5.00;99.90
9808;DHT22;4943;52.550;13.462;2023-04-03T07:53:39;5.20;99.90
9808;DHT22;4943;52.550;13.462;2023-04-03T07:56:08;5.50;99.90
9808;DHT22;4943;52.550;13.462;2023-04-03T07:58:36;5.60;99.90
9808;DHT22;4943;52.550;13.462;2023-04-03T08:01:04;5.70;99.90
9808;DHT22;4943;52.550;13.462;2023-04-03T08:03:32;5.80;99.90
9808;DHT22;4943;52.550;13.462;2023-04-03T08:06:02;5.80;99.90
9808;DHT22;4943;52.550;13.462;2023-04-03T08:08:34;5.80;99.90
9808;DHT22;4943;52.550;13.462;2023-04-03T08:11:02;5.80;99.90
9808;DHT22;4943;52.550;13.462;2023-04-03T08:13:32;5.70;99.90
9808;DHT22;4943;52.550;13.462;2023-04-03T08:16:08;5.70;99.90
9808;DHT22;4943;52.550;13.462;2023-04-03T08:18:37;5.70;99.90
9808;DHT22;4943;52.550;13.462;2023-04-03T08:21:07;5.70;99.90
9808;DHT22;4943;52.550;13.462;2023-04-03T08:23:37;5.80;99.90
9808;DHT22;4943;52.550;13.462;2023-04-03T08:26:09;5.90;99.90
9808;DHT22;4943;52.550;13.462;2023-04-03T08:28:38;6.00;99.90
9808;DHT22;4943;52.550;13.462;2023-04-03T08:31:09;6.10;99.90
9808;DHT22;4943;52.550;13.462;2023-04-03T08:33:39;6.20;99.90
9808;DHT22;4943;52.550;13.462;2023-04-03T08:36:17;6.30;99.90
9808;DHT22;4943;52.550;13.462;2023-04-03T08:38:47;6.40;99.90
9808;DHT22;4943;52.550;13.462;2023-04-03T08:41:18;6.40;99.70
9808;DHT22;4943;52.550;13.462;2023-04-03T08:43:57;6.40;99.30
9808;DHT22;4943;52.550;13.462;2023-04-03T08:46:40;6.30;99.00
9808;DHT22;4943;52.550;13.462;2023-04-03T08:49:16;6.20;99.00
9808;DHT22;4943;52.550;13.462;2023-04-03T08:51:47;6.20;98.80
9808;DHT22;4943;52.550;13.462;2023-04-03T08:54:24;6.10;98.70
9808;DHT22;4943;52.550;13.462;2023-04-03T08:56:53;6.20;99.00
9808;DHT22;4943;52.550;13.462;2023-04-03T08:59:27;6.20;98.70
9808;DHT22;4943;52.550;13.462;2023-04-03T09:01:58;6.30;98.60
9808;DHT22;4943;52.550;13.462;2023-04-03T09:04:31;6.40;98.30
9808;DHT22;4943;52.550;13.462;2023-04-03T09:07:05;6.40;98.10
9808;DHT22;4943;52.550;13.462;2023-04-03T09:09:39;6.50;98.30
9808;DHT22;4943;52.550;13.462;2023-04-03T09:12:15;6.60;97.60
9808;DHT22;4943;52.550;13.462;2023-04-03T09:14:52;6.70;97.30
9808;DHT22;4943;52.550;13.462;2023-04-03T09:17:36;6.80;97.00
9808;DHT22;4943;52.550;13.462;2023-04-03T09:20:14;6.80;96.80
9808;DHT22;4943;52.550;13.462;2023-04-03T09:22:47;6.90;97.10
9808;DHT22;4943;52.550;13.462;2023-04-03T09:25:22;7.00;97.00
9808;DHT22;4943;52.550;13.462;2023-04-03T09:27:51;7.10;97.20
9808;DHT22;4943;52.550;13.462;2023-04-03T09:30:20;7.30;97.10
9808;DHT22;4943;52.550;13.462;2023-04-03T09:32:51;7.50;96.50
9808;DHT22;4943;52.550;13.462;2023-04-03T09:35:23;7.50;96.20
9808;DHT22;4943;52.550;13.462;2023-04-03T09:38:16;7.50;96.00
9808;DHT22;4943;52.550;13.462;2023-04-03T09:40:48;7.40;95.70
9808;DHT22;4943;52.550;13.462;2023-04-03T09:43:23;7.30;95.80
9808;DHT22;4943;52.550;13.462;2023-04-03T09:45:53;7.30;96.20
9808;DHT22;4943;52.550;13.462;2023-04-03T09:48:22;7.30;96.10
9808;DHT22;4943;52.550;13.462;2023-04-03T09:50:57;7.40;96.50
9808;DHT22;4943;52.550;13.462;2023-04-03T09:53:35;7.50;96.20
9808;DHT22;4943;52.550;13.462;2023-04-03T09:56:19;7.50;96.30
9808;DHT22;4943;52.550;13.462;2023-04-03T09:58:50;7.50;96.30
9808;DHT22;4943;52.550;13.462;2023-04-03T10:01:25;7.60;96.20
9808;DHT22;4943;52.550;13.462;2023-04-03T10:04:08;7.60;96.00
9808;DHT22;4943;52.550;13.462;2023-04-03T10:06:38;7.70;96.70
9808;DHT22;4943;52.550;13.462;2023-04-03T10:09:18;7.90;96.70
9808;DHT22;4943;52.550;13.462;2023-04-03T10:12:05;8.00;96.20
9808;DHT22;4943;52.550;13.462;2023-04-03T10:14:34;8.00;95.40
9808;DHT22;4943;52.550;13.462;2023-04-03T10:17:11;7.90;95.40
9808;DHT22;4943;52.550;13.462;2023-04-03T10:19:44;8.00;95.90
9808;DHT22;4943;52.550;13.462;2023-04-03T10:22:19;8.10;95.70
9808;DHT22;4943;52.550;13.462;2023-04-03T10:24:52;8.10;95.20
9808;DHT22;4943;52.550;13.462;2023-04-03T10:27:33;8.20;95.10
9808;DHT22;4943;52.550;13.462;2023-04-03T10:30:17;8.30;94.50
9808;DHT22;4943;52.550;13.462;2023-04-03T10:32:54;8.20;94.50
9808;DHT22;4943;52.550;13.462;2023-04-03T10:35:37;8.30;94.80
9808;DHT22;4943;52.550;13.462;2023-04-03T10:38:15;8.50;94.60
9808;DHT22;4943;52.550;13.462;2023-04-03T10:40:50;8.60;94.40
9808;DHT22;4943;52.550;13.462;2023-04-03T10:43:29;8.60;94.40
9808;DHT22;4943;52.550;13.462;2023-04-03T10:46:02;8.70;94.20
9808;DHT22;4943;52.550;13.462;2023-04-03T10:48:40;8.70;94.10
9808;DHT22;4943;52.550;13.462;2023-04-03T10:51:22;8.90;94.60
9808;DHT22;4943;52.550;13.462;2023-04-03T10:53:56;9.10;95.00
9808;DHT22;4943;52.550;13.462;2023-04-03T10:56:33;9.30;94.50
9808;DHT22;4943;52.550;13.462;2023-04-03T10:59:15;9.30;93.80
9808;DHT22;4943;52.550;13.462;2023-04-03T11:01:47;9.30;94.10
9808;DHT22;4943;52.550;13.462;2023-04-03T11:04:17;9.20;94.00
9808;DHT22;4943;52.550;13.462;2023-04-03T11:06:51;9.20;93.50
9808;DHT22;4943;52.550;13.462;2023-04-03T11:09:24;9.10;93.50
9808;DHT22;4943;52.550;13.462;2023-04-03T11:11:56;9.10;93.90
9808;DHT22;4943;52.550;13.462;2023-04-03T11:14:31;9.00;93.40
9808;DHT22;4943;52.550;13.462;2023-04-03T11:17:21;8.90;93.20
9808;DHT22;4943;52.550;13.462;2023-04-03T11:19:59;8.80;93.90
9808;DHT22;4943;52.550;13.462;2023-04-03T11:22:32;8.70;94.20
9808;DHT22;4943;52.550;13.462;2023-04-03T11:25:04;8.80;94.00
9808;DHT22;4943;52.550;13.462;2023-04-03T11:27:40;8.80;93.60
9808;DHT22;4943;52.550;13.462;2023-04-03T11:30:16;8.80;93.90
9808;DHT22;4943;52.550;13.462;2023-04-03T11:32:59;8.80;94.20
9808;DHT22;4943;52.550;13.462;2023-04-03T11:35:30;8.90;94.30
9808;DHT22;4943;52.550;13.462;2023-04-03T11:38:01;9.00;94.40
9808;DHT22;4943;52.550;13.462;2023-04-03T11:40:34;9.20;94.70
9808;DHT22;4943;52.550;13.462;2023-04-03T11:43:07;9.20;94.10
9808;DHT22;4943;52.550;13.462;2023-04-03T11:45:40;9.30;94.60
9808;DHT22;4943;52.550;13.462;2023-04-03T11:48:45;9.40;94.60
9808;DHT22;4943;52.550;13.462;2023-04-03T11:51:39;9.50;94.20
9808;DHT22;4943;52.550;13.462;2023-04-03T11:54:42;9.40;93.80
9808;DHT22;4943;52.550;13.462;2023-04-03T11:57:46;9.40;93.70
9808;DHT22;4943;52.550;13.462;2023-04-03T12:00:48;9.30;93.90
9808;DHT22;4943;52.550;13.462;2023-04-03T12:09:25;9.10;93.90
9808;DHT22;4943;52.550;13.462;2023-04-03T12:11:56;9.10;93.70
9808;DHT22;4943;52.550;13.462;2023-04-03T12:14:25;9.10;93.70
9808;DHT22;4943;52.550;13.462;2023-04-03T12:16:57;9.00;93.60
9808;DHT22;4943;52.550;13.462;2023-04-03T12:19:31;8.90;93.30
9808;DHT22;4943;52.550;13.462;2023-04-03T12:22:13;8.90;93.50
9808;DHT22;4943;52.550;13.462;2023-04-03T12:24:44;8.90;93.90
9808;DHT22;4943;52.550;13.462;2023-04-03T12:27:22;8.90;94.00
9808;DHT22;4943;52.550;13.462;2023-04-03T12:29:55;9.00;94.10
9808;DHT22;4943;52.550;13.462;2023-04-03T12:32:46;9.00;94.10
9808;DHT22;4943;52.550;13.462;2023-04-03T12:35:23;9.20;94.30
9808;DHT22;4943;52.550;13.462;2023-04-03T12:41:19;9.30;93.30
9808;DHT22;4943;52.550;13.462;2023-04-03T12:44:05;9.30;93.60
9808;DHT22;4943;52.550;13.462;2023-04-03T12:46:38;9.40;93.80
9808;DHT22;4943;52.550;13.462;2023-04-03T12:49:22;9.60;93.60
9808;DHT22;4943;52.550;13.462;2023-04-03T12:51:52;9.60;93.30
9808;DHT22;4943;52.550;13.462;2023-04-03T12:54:23;9.50;93.40
9808;DHT22;4943;52.550;13.462;2023-04-03T12:57:09;9.50;93.10
9808;DHT22;4943;52.550;13.462;2023-04-03T12:59:37;9.40;92.80
9808;DHT22;4943;52.550;13.462;2023-04-03T13:02:19;9.30;92.60
9808;DHT22;4943;52.550;13.462;2023-04-03T13:04:50;9.20;93.30
9808;DHT22;4943;52.550;13.462;2023-04-03T13:07:21;9.20;93.30
9808;DHT22;4943;52.550;13.462;2023-04-03T13:09:56;9.10;93.40
9808;DHT22;4943;52.550;13.462;2023-04-03T13:12:25;9.10;93.00
9808;DHT22;4943;52.550;13.462;2023-04-03T13:14:58;9.00;93.00
9808;DHT22;4943;52.550;13.462;2023-04-03T13:17:28;8.90;92.90
9808;DHT22;4943;52.550;13.462;2023-04-03T13:20:10;8.70;93.10
9808;DHT22;4943;52.550;13.462;2023-04-03T13:22:40;8.80;93.40
9808;DHT22;4943;52.550;13.462;2023-04-03T13:25:13;8.80;93.50
9808;DHT22;4943;52.550;13.462;2023-04-03T13:27:43;8.80;93.40
9808;DHT22;4943;52.550;13.462;2023-04-03T13:30:25;8.80;93.60
9808;DHT22;4943;52.550;13.462;2023-04-03T13:32:54;9.00;93.70
9808;DHT22;4943;52.550;13.462;2023-04-03T13:35:35;9.00;93.60
9808;DHT22;4943;52.550;13.462;2023-04-03T13:38:06;9.10;93.60
9808;DHT22;4943;52.550;13.462;2023-04-03T13:40:47;9.10;93.30
9808;DHT22;4943;52.550;13.462;2023-04-03T13:43:20;9.10;93.60
9808;DHT22;4943;52.550;13.462;2023-04-03T13:46:01;9.10;93.40
9808;DHT22;4943;52.550;13.462;2023-04-03T13:48:37;9.00;93.40
9808;DHT22;4943;52.550;13.462;2023-04-03T13:51:18;8.90;93.50
9808;DHT22;4943;52.550;13.462;2023-04-03T13:53:48;8.80;93.70
9808;DHT22;4943;52.550;13.462;2023-04-03T13:56:21;8.80;93.90
9808;DHT22;4943;52.550;13.462;2023-04-03T14:01:43;8.80;93.90
9808;DHT22;4943;52.550;13.462;2023-04-03T14:04:15;8.90;94.30
9808;DHT22;4943;52.550;13.462;2023-04-03T14:06:45;8.90;94.30
9808;DHT22;4943;52.550;13.462;2023-04-03T14:09:16;9.00;94.20
9808;DHT22;4943;52.550;13.462;2023-04-03T14:11:44;9.10;94.30
9808;DHT22;4943;52.550;13.462;2023-04-03T14:14:17;9.20;94.30
9808;DHT22;4943;52.550;13.462;2023-04-03T14:16:48;9.30;94.30
9808;DHT22;4943;52.550;13.462;2023-04-03T14:19:21;9.30;94.50
9808;DHT22;4943;52.550;13.462;2023-04-03T14:21:53;9.40;94.20
9808;DHT22;4943;52.550;13.462;2023-04-03T14:24:23;9.40;94.20
9808;DHT22;4943;52.550;13.462;2023-04-03T14:26:53;9.50;94.40
9808;DHT22;4943;52.550;13.462;2023-04-03T14:29:21;9.70;94.30
9808;DHT22;4943;52.550;13.462;2023-04-03T14:31:50;9.80;94.20
9808;DHT22;4943;52.550;13.462;2023-04-03T14:34:37;9.90;94.10
9808;DHT22;4943;52.550;13.462;2023-04-03T14:37:10;9.90;94.00
9808;DHT22;4943;52.550;13.462;2023-04-03T14:39:38;9.80;93.80
9808;DHT22;4943;52.550;13.462;2023-04-03T14:42:12;9.80;94.00
9808;DHT22;4943;52.550;13.462;2023-04-03T14:44:40;9.70;94.00
9808;DHT22;4943;52.550;13.462;2023-04-03T14:47:11;9.60;93.80
9808;DHT22;4943;52.550;13.462;2023-04-03T14:49:56;9.50;93.60
9808;DHT22;4943;52.550;13.462;2023-04-03T14:52:27;9.30;93.60
9808;DHT22;4943;52.550;13.462;2023-04-03T14:54:58;9.20;93.90
9808;DHT22;4943;52.550;13.462;2023-04-03T14:57:28;8.90;93.90
9808;DHT22;4943;52.550;13.462;2023-04-03T15:00:03;8.80;94.10
9808;DHT22;4943;52.550;13.462;2023-04-03T15:02:34;8.60;94.20
9808;DHT22;4943;52.550;13.462;2023-04-03T15:05:05;8.40;94.40
9808;DHT22;4943;52.550;13.462;2023-04-03T15:07:36;8.30;94.70
9808;DHT22;4943;52.550;13.462;2023-04-03T15:10:16;8.20;94.90
9808;DHT22;4943;52.550;13.462;2023-04-03T15:12:45;8.20;95.10
9808;DHT22;4943;52.550;13.462;2023-04-03T15:15:15;8.20;95.20
9808;DHT22;4943;52.550;13.462;2023-04-03T15:17:44;8.10;95.20
9808;DHT22;4943;52.550;13.462;2023-04-03T15:20:15;8.10;95.40
9808;DHT22;4943;52.550;13.462;2023-04-03T15:22:45;8.10;95.70
9808;DHT22;4943;52.550;13.462;2023-04-03T15:25:13;8.10;95.70
9808;DHT22;4943;52.550;13.462;2023-04-03T15:27:42;8.10;95.70
9808;DHT22;4943;52.550;13.462;2023-04-03T15:30:14;8.10;95.70
9808;DHT22;4943;52.550;13.462;2023-04-03T15:32:44;8.10;95.90
9808;DHT22;4943;52.550;13.462;2023-04-03T15:35:12;8.10;96.00
9808;DHT22;4943;52.550;13.462;2023-04-03T15:37:41;8.20;96.00
9808;DHT22;4943;52.550;13.462;2023-04-03T15:40:11;8.20;95.90
9808;DHT22;4943;52.550;13.462;2023-04-03T15:42:39;8.20;95.80
9808;DHT22;4943;52.550;13.462;2023-04-03T15:45:08;8.20;95.80
9808;DHT22;4943;52.550;13.462;2023-04-03T15:47:37;8.10;95.70
9808;DHT22;4943;52.550;13.462;2023-04-03T15:50:06;8.00;95.70
9808;DHT22;4943;52.550;13.462;2023-04-03T15:52:35;7.90;95.70
9808;DHT22;4943;52.550;13.462;2023-04-03T15:55:03;7.80;95.60
9808;DHT22;4943;52.550;13.462;2023-04-03T15:57:34;7.80;95.50
9808;DHT22;4943;52.550;13.462;2023-04-03T16:00:08;7.70;95.60
9808;DHT22;4943;52.550;13.462;2023-04-03T16:02:36;7.60;95.70
9808;DHT22;4943;52.550;13.462;2023-04-03T16:05:05;7.60;96.10
9808;DHT22;4943;52.550;13.462;2023-04-03T16:07:33;7.90;96.80
9808;DHT22;4943;52.550;13.462;2023-04-03T16:10:02;8.30;97.20
9808;DHT22;4943;52.550;13.462;2023-04-03T16:12:30;8.80;97.40
9808;DHT22;4943;52.550;13.462;2023-04-03T16:15:00;9.10;97.20
9808;DHT22;4943;52.550;13.462;2023-04-03T16:17:28;9.40;96.50
9808;DHT22;4943;52.550;13.462;2023-04-03T16:19:56;9.60;96.20
9808;DHT22;4943;52.550;13.462;2023-04-03T16:22:25;9.60;95.60
9808;DHT22;4943;52.550;13.462;2023-04-03T16:24:55;9.60;95.50
9808;DHT22;4943;52.550;13.462;2023-04-03T16:27:23;9.60;95.30
9808;DHT22;4943;52.550;13.462;2023-04-03T16:29:54;9.50;94.70
9808;DHT22;4943;52.550;13.462;2023-04-03T16:32:25;9.30;94.70
9808;DHT22;4943;52.550;13.462;2023-04-03T16:34:54;9.10;94.70
9808;DHT22;4943;52.550;13.462;2023-04-03T16:37:22;8.90;94.80
9808;DHT22;4943;52.550;13.462;2023-04-03T16:39:52;8.70;95.00
9808;DHT22;4943;52.550;13.462;2023-04-03T16:42:20;8.50;95.20